sensor_id;sensor_type;location;lat;lon;timestamp;temperature;humidity
13472;DHT22;6808;49.444;11.034;2023-06-14T00:01:16;18.40;48.80
13472;DHT22;6808;49.444;11.034;2023-06-14T00:03:42;18.40;48.90
13472;DHT22;6808;49.444;11.034;2023-06-14T00:06:08;18.40;48.90
13472;DHT22;6808;49.444;11.034;2023-06-14T00:08:33;18.50;48.90
13472;DHT22;6808;49.444;11.034;2023-06-14T00:10:59;18.50;50.70
13472;DHT22;6808;49.444;11.034;2023-06-14T00:13:25;18.50;50.30
13472;DHT22;6808;49.444;11.034;2023-06-14T00:15:51;18.50;49.90
13472;DHT22;6808;49.444;11.034;2023-06-14T00:18:20;18.50;49.80
13472;DHT22;6808;49.444;11.034;2023-06-14T00:20:49;18.50;49.60
13472;DHT22;6808;49.444;11.034;2023-06-14T00:23:16;18.50;49.70
13472;DHT22;6808;49.444;11.034;2023-06-14T00:25:41;18.50;50.00
13472;DHT22;6808;49.444;11.034;2023-06-14T00:28:07;18.60;50.00
13472;DHT22;6808;49.444;11.034;2023-06-14T00:30:32;18.50;50.00
13472;DHT22;6808;49.444;11.034;2023-06-14T00:32:58;18.40;50.00
13472;DHT22;6808;49.444;11.034;2023-06-14T00:35:24;18.40;50.50
13472;DHT22;6808;49.444;11.034;2023-06-14T00:37:49;18.40;50.60
13472;DHT22;6808;49.444;11.034;2023-06-14T00:40:15;18.40;50.90
13472;DHT22;6808;49.444;11.034;2023-06-14T00:42:40;18.30;51.60
13472;DHT22;6808;49.444;11.034;2023-06-14T00:45:06;18.40;51.70
13472;DHT22;6808;49.444;11.034;2023-06-14T00:47:32;18.00;51.80
13472;DHT22;6808;49.444;11.034;2023-06-14T00:49:58;17.80;52.10
13472;DHT22;6808;49.444;11.034;2023-06-14T00:52:25;17.60;52.80
13472;DHT22;6808;49.444;11.034;2023-06-14T00:54:51;17.20;53.60
13472;DHT22;6808;49.444;11.034;2023-06-14T00:57:16;17.10;53.70
13472;DHT22;6808;49.444;11.034;2023-06-14T00:59:45;17.20;54.40
13472;DHT22;6808;49.444;11.034;2023-06-14T01:02:11;17.30;55.00
13472;DHT22;6808;49.444;11.034;2023-06-14T01:04:38;17.40;54.60
13472;DHT22;6808;49.444;11.034;2023-06-14T01:07:12;17.40;54.90
13472;DHT22;6808;49.444;11.034;2023-06-14T01:12:37;17.40;54.60
13472;DHT22;6808;49.444;11.034;2023-06-14T01:15:04;17.50;55.00
13472;DHT22;6808;49.444;11.034;2023-06-14T01:17:30;17.40;54.70
13472;DHT22;6808;49.444;11.034;2023-06-14T01:19:59;17.50;54.80
13472;DHT22;6808;49.444;11.034;2023-06-14T01:22:26;17.50;54.90
13472;DHT22;6808;49.444;11.034;2023-06-14T01:24:53;17.50;55.20
13472;DHT22;6808;49.444;11.034;2023-06-14T01:27:23;17.30;55.50
13472;DHT22;6808;49.444;11.034;2023-06-14T01:29:51;17.30;55.60
13472;DHT22;6808;49.444;11.034;2023-06-14T01:32:23;17.20;55.50
13472;DHT22;6808;49.444;11.034;2023-06-14T01:34:49;17.20;55.70
13472;DHT22;6808;49.444;11.034;2023-06-14T01:37:15;17.20;55.80
13472;DHT22;6808;49.444;11.034;2023-06-14T01:39:43;17.50;56.50
13472;DHT22;6808;49.444;11.034;2023-06-14T01:42:09;16.80;57.00
13472;DHT22;6808;49.444;11.034;2023-06-14T01:44:36;16.80;57.50
13472;DHT22;6808;49.444;11.034;2023-06-14T01:47:02;16.70;57.60
13472;DHT22;6808;49.444;11.034;2023-06-14T01:49:28;16.70;57.60
13472;DHT22;6808;49.444;11.034;2023-06-14T01:51:54;16.70;57.70
13472;DHT22;6808;49.444;11.034;2023-06-14T01:54:19;16.70;57.60
13472;DHT22;6808;49.444;11.034;2023-06-14T01:56:45;16.70;57.60
13472;DHT22;6808;49.444;11.034;2023-06-14T01:59:10;16.70;57.80
13472;DHT22;6808;49.444;11.034;2023-06-14T02:01:36;16.70;58.00
13472;DHT22;6808;49.444;11.034;2023-06-14T02:04:01;16.60;58.60
13472;DHT22;6808;49.444;11.034;2023-06-14T02:06:27;16.40;58.70
13472;DHT22;6808;49.444;11.034;2023-06-14T02:08:53;16.40;59.00
13472;DHT22;6808;49.444;11.034;2023-06-14T02:11:19;16.40;59.30
13472;DHT22;6808;49.444;11.034;2023-06-14T02:13:44;16.40;59.30
13472;DHT22;6808;49.444;11.034;2023-06-14T02:16:10;16.40;59.40
13472;DHT22;6808;49.444;11.034;2023-06-14T02:18:36;16.40;59.30
13472;DHT22;6808;49.444;11.034;2023-06-14T02:21:02;16.40;59.30
13472;DHT22;6808;49.444;11.034;2023-06-14T02:23:27;16.40;59.60
13472;DHT22;6808;49.444;11.034;2023-06-14T02:25:53;16.40;59.60
13472;DHT22;6808;49.444;11.034;2023-06-14T02:28:18;16.40;59.60
13472;DHT22;6808;49.444;11.034;2023-06-14T02:30:44;16.40;59.60
13472;DHT22;6808;49.444;11.034;2023-06-14T02:33:10;16.40;59.60
13472;DHT22;6808;49.444;11.034;2023-06-14T02:35:38;16.50;60.30
13472;DHT22;6808;49.444;11.034;2023-06-14T02:38:03;16.40;60.30
13472;DHT22;6808;49.444;11.034;2023-06-14T02:40:29;16.20;60.90
13472;DHT22;6808;49.444;11.034;2023-06-14T02:42:55;16.20;61.30
13472;DHT22;6808;49.444;11.034;2023-06-14T02:45:20;16.10;61.70
13472;DHT22;6808;49.444;11.034;2023-06-14T02:47:46;16.00;62.40
13472;DHT22;6808;49.444;11.034;2023-06-14T02:50:11;15.90;62.30
13472;DHT22;6808;49.444;11.034;2023-06-14T02:52:37;16.00;62.70
13472;DHT22;6808;49.444;11.034;2023-06-14T02:55:03;15.90;62.60
13472;DHT22;6808;49.444;11.034;2023-06-14T02:57:30;16.00;62.90
13472;DHT22;6808;49.444;11.034;2023-06-14T02:59:55;16.00;62.50
13472;DHT22;6808;49.444;11.034;2023-06-14T03:02:21;16.00;62.30
13472;DHT22;6808;49.444;11.034;2023-06-14T03:04:46;16.00;63.00
13472;DHT22;6808;49.444;11.034;2023-06-14T03:07:12;16.00;63.00
13472;DHT22;6808;49.444;11.034;2023-06-14T03:09:39;16.00;63.30
13472;DHT22;6808;49.444;11.034;2023-06-14T03:12:05;16.00;64.10
13472;DHT22;6808;49.444;11.034;2023-06-14T03:14:35;16.00;65.50
13472;DHT22;6808;49.444;11.034;2023-06-14T03:17:01;16.00;67.20
13472;DHT22;6808;49.444;11.034;2023-06-14T03:19:27;15.90;67.80
13472;DHT22;6808;49.444;11.034;2023-06-14T03:21:52;15.90;69.00
13472;DHT22;6808;49.444;11.034;2023-06-14T03:24:19;15.90;68.80
13472;DHT22;6808;49.444;11.034;2023-06-14T03:26:45;16.30;68.60
13472;DHT22;6808;49.444;11.034;2023-06-14T03:29:10;15.90;68.10
13472;DHT22;6808;49.444;11.034;2023-06-14T03:31:36;15.90;67.50
13472;DHT22;6808;49.444;11.034;2023-06-14T03:34:02;15.90;68.70
13472;DHT22;6808;49.444;11.034;2023-06-14T03:36:27;15.90;69.90
13472;DHT22;6808;49.444;11.034;2023-06-14T03:38:53;15.90;71.10
13472;DHT22;6808;49.444;11.034;2023-06-14T03:41:20;15.80;70.90
13472;DHT22;6808;49.444;11.034;2023-06-14T03:43:45;15.80;70.90
13472;DHT22;6808;49.444;11.034;2023-06-14T03:46:11;15.80;70.60
13472;DHT22;6808;49.444;11.034;2023-06-14T03:48:37;15.80;71.00
13472;DHT22;6808;49.444;11.034;2023-06-14T03:51:04;15.80;70.80
13472;DHT22;6808;49.444;11.034;2023-06-14T03:53:30;15.70;71.60
13472;DHT22;6808;49.444;11.034;2023-06-14T03:55:56;15.80;73.00
13472;DHT22;6808;49.444;11.034;2023-06-14T03:58:22;15.80;72.30
13472;DHT22;6808;49.444;11.034;2023-06-14T04:00:48;15.70;71.70
13472;DHT22;6808;49.444;11.034;2023-06-14T04:03:14;15.80;74.30
13472;DHT22;6808;49.444;11.034;2023-06-14T04:05:41;15.80;75.30
13472;DHT22;6808;49.444;11.034;2023-06-14T04:08:08;15.80;75.50
13472;DHT22;6808;49.444;11.034;2023-06-14T04:10:34;15.70;75.30
13472;DHT22;6808;49.444;11.034;2023-06-14T04:13:00;15.60;73.60
13472;DHT22;6808;49.444;11.034;2023-06-14T04:15:26;15.70;75.40
13472;DHT22;6808;49.444;11.034;2023-06-14T04:17:53;15.70;76.20
13472;DHT22;6808;49.444;11.034;2023-06-14T04:20:22;15.70;76.30
13472;DHT22;6808;49.444;11.034;2023-06-14T04:22:50;15.70;78.00
13472;DHT22;6808;49.444;11.034;2023-06-14T04:25:16;15.70;77.50
13472;DHT22;6808;49.444;11.034;2023-06-14T04:27:42;15.70;78.30
13472;DHT22;6808;49.444;11.034;2023-06-14T04:30:08;15.80;77.90
13472;DHT22;6808;49.444;11.034;2023-06-14T04:32:34;16.00;76.20
13472;DHT22;6808;49.444;11.034;2023-06-14T04:35:03;16.10;77.70
13472;DHT22;6808;49.444;11.034;2023-06-14T04:37:30;16.20;76.30
13472;DHT22;6808;49.444;11.034;2023-06-14T04:39:56;16.70;76.90
13472;DHT22;6808;49.444;11.034;2023-06-14T04:42:22;16.40;74.30
13472;DHT22;6808;49.444;11.034;2023-06-14T04:44:51;16.60;75.30
13472;DHT22;6808;49.444;11.034;2023-06-14T04:47:17;16.70;73.20
13472;DHT22;6808;49.444;11.034;2023-06-14T04:49:43;16.90;72.10
13472;DHT22;6808;49.444;11.034;2023-06-14T04:52:10;17.00;71.10
13472;DHT22;6808;49.444;11.034;2023-06-14T04:54:36;17.30;71.50
13472;DHT22;6808;49.444;11.034;2023-06-14T04:57:08;17.60;72.70
13472;DHT22;6808;49.444;11.034;2023-06-14T04:59:33;17.60;69.50
13472;DHT22;6808;49.444;11.034;2023-06-14T05:02:01;18.30;71.20
13472;DHT22;6808;49.444;11.034;2023-06-14T05:04:27;17.80;70.20
13472;DHT22;6808;49.444;11.034;2023-06-14T05:06:53;18.00;67.50
13472;DHT22;6808;49.444;11.034;2023-06-14T05:09:20;17.90;67.90
13472;DHT22;6808;49.444;11.034;2023-06-14T05:11:46;17.80;66.10
13472;DHT22;6808;49.444;11.034;2023-06-14T05:14:13;17.40;67.50
13472;DHT22;6808;49.444;11.034;2023-06-14T05:16:39;16.90;70.00
13472;DHT22;6808;49.444;11.034;2023-06-14T05:19:06;16.90;72.40
13472;DHT22;6808;49.444;11.034;2023-06-14T05:21:33;16.50;71.90
13472;DHT22;6808;49.444;11.034;2023-06-14T05:24:04;16.40;73.40
13472;DHT22;6808;49.444;11.034;2023-06-14T05:26:30;16.50;74.00
13472;DHT22;6808;49.444;11.034;2023-06-14T05:28:59;16.50;74.30
13472;DHT22;6808;49.444;11.034;2023-06-14T05:31:27;17.10;76.00
13472;DHT22;6808;49.444;11.034;2023-06-14T05:33:53;16.70;75.30
13472;DHT22;6808;49.444;11.034;2023-06-14T05:36:20;16.90;74.00
13472;DHT22;6808;49.444;11.034;2023-06-14T05:38:46;17.00;74.30
13472;DHT22;6808;49.444;11.034;2023-06-14T05:41:12;16.80;74.80
13472;DHT22;6808;49.444;11.034;2023-06-14T05:43:37;16.80;74.70
13472;DHT22;6808;49.444;11.034;2023-06-14T05:46:03;16.70;76.00
13472;DHT22;6808;49.444;11.034;2023-06-14T05:48:30;16.90;75.50
13472;DHT22;6808;49.444;11.034;2023-06-14T05:50:55;17.10;75.40
13472;DHT22;6808;49.444;11.034;2023-06-14T05:53:21;17.30;75.30
13472;DHT22;6808;49.444;11.034;2023-06-14T05:55:47;17.60;75.30
13472;DHT22;6808;49.444;11.034;2023-06-14T05:58:12;17.70;75.60
13472;DHT22;6808;49.444;11.034;2023-06-14T06:00:39;17.50;75.20
13472;DHT22;6808;49.444;11.034;2023-06-14T06:03:04;17.50;75.20
13472;DHT22;6808;49.444;11.034;2023-06-14T06:05:30;17.80;77.10
13472;DHT22;6808;49.444;11.034;2023-06-14T06:07:56;17.30;76.10
13472;DHT22;6808;49.444;11.034;2023-06-14T06:10:21;17.20;77.40
13472;DHT22;6808;49.444;11.034;2023-06-14T06:12:47;16.40;75.60
13472;DHT22;6808;49.444;11.034;2023-06-14T06:15:14;17.70;76.20
13472;DHT22;6808;49.444;11.034;2023-06-14T06:17:40;18.10;76.60
13472;DHT22;6808;49.444;11.034;2023-06-14T06:20:06;18.40;74.30
13472;DHT22;6808;49.444;11.034;2023-06-14T06:22:34;18.80;72.30
13472;DHT22;6808;49.444;11.034;2023-06-14T06:25:00;19.10;71.20
13472;DHT22;6808;49.444;11.034;2023-06-14T06:27:25;19.50;70.60
13472;DHT22;6808;49.444;11.034;2023-06-14T06:29:51;18.60;71.90
13472;DHT22;6808;49.444;11.034;2023-06-14T06:32:17;18.30;72.40
13472;DHT22;6808;49.444;11.034;2023-06-14T06:34:43;18.30;73.00
13472;DHT22;6808;49.444;11.034;2023-06-14T06:37:08;18.40;72.50
13472;DHT22;6808;49.444;11.034;2023-06-14T06:39:34;18.40;73.50
13472;DHT22;6808;49.444;11.034;2023-06-14T06:42:00;18.70;73.10
13472;DHT22;6808;49.444;11.034;2023-06-14T06:44:25;18.90;71.30
13472;DHT22;6808;49.444;11.034;2023-06-14T06:46:51;19.20;70.70
13472;DHT22;6808;49.444;11.034;2023-06-14T06:49:16;19.40;70.30
13472;DHT22;6808;49.444;11.034;2023-06-14T06:51:42;19.60;69.70
13472;DHT22;6808;49.444;11.034;2023-06-14T06:54:11;19.90;67.60
13472;DHT22;6808;49.444;11.034;2023-06-14T06:56:36;20.30;65.90
13472;DHT22;6808;49.444;11.034;2023-06-14T06:59:02;20.50;64.80
13472;DHT22;6808;49.444;11.034;2023-06-14T07:01:28;20.70;63.40
13472;DHT22;6808;49.444;11.034;2023-06-14T07:03:54;20.90;64.90
13472;DHT22;6808;49.444;11.034;2023-06-14T07:06:20;20.40;61.90
13472;DHT22;6808;49.444;11.034;2023-06-14T07:08:46;20.70;64.50
13472;DHT22;6808;49.444;11.034;2023-06-14T07:11:14;20.90;61.40
13472;DHT22;6808;49.444;11.034;2023-06-14T07:13:39;21.00;60.20
13472;DHT22;6808;49.444;11.034;2023-06-14T07:16:05;21.10;61.00
13472;DHT22;6808;49.444;11.034;2023-06-14T07:18:31;21.40;60.60
13472;DHT22;6808;49.444;11.034;2023-06-14T07:20:56;21.00;59.10
13472;DHT22;6808;49.444;11.034;2023-06-14T07:23:23;20.50;59.30
13472;DHT22;6808;49.444;11.034;2023-06-14T07:25:48;20.40;60.60
13472;DHT22;6808;49.444;11.034;2023-06-14T07:28:14;20.80;59.40
13472;DHT22;6808;49.444;11.034;2023-06-14T07:30:39;21.10;59.20
13472;DHT22;6808;49.444;11.034;2023-06-14T07:33:05;21.40;58.90
13472;DHT22;6808;49.444;11.034;2023-06-14T07:35:31;21.60;58.30
13472;DHT22;6808;49.444;11.034;2023-06-14T07:37:58;21.90;58.10
13472;DHT22;6808;49.444;11.034;2023-06-14T07:40:23;22.00;57.10
13472;DHT22;6808;49.444;11.034;2023-06-14T07:42:49;22.20;57.80
13472;DHT22;6808;49.444;11.034;2023-06-14T07:45:16;22.70;57.20
13472;DHT22;6808;49.444;11.034;2023-06-14T07:47:41;22.10;57.00
13472;DHT22;6808;49.444;11.034;2023-06-14T07:50:07;22.30;56.90
13472;DHT22;6808;49.444;11.034;2023-06-14T07:52:33;22.40;55.50
13472;DHT22;6808;49.444;11.034;2023-06-14T07:54:59;22.30;54.80
13472;DHT22;6808;49.444;11.034;2023-06-14T07:57:25;22.50;54.40
13472;DHT22;6808;49.444;11.034;2023-06-14T07:59:51;21.50;55.40
13472;DHT22;6808;49.444;11.034;2023-06-14T08:02:16;21.80;55.70
13472;DHT22;6808;49.444;11.034;2023-06-14T08:04:42;21.80;54.50
13472;DHT22;6808;49.444;11.034;2023-06-14T08:07:08;22.10;54.60
13472;DHT22;6808;49.444;11.034;2023-06-14T08:09:35;22.30;54.70
13472;DHT22;6808;49.444;11.034;2023-06-14T08:12:04;22.60;53.70
13472;DHT22;6808;49.444;11.034;2023-06-14T08:14:30;22.60;52.90
13472;DHT22;6808;49.444;11.034;2023-06-14T08:16:56;22.10;52.80
13472;DHT22;6808;49.444;11.034;2023-06-14T08:19:22;22.10;53.50
13472;DHT22;6808;49.444;11.034;2023-06-14T08:21:48;22.20;53.10
13472;DHT22;6808;49.444;11.034;2023-06-14T08:24:13;22.90;53.10
13472;DHT22;6808;49.444;11.034;2023-06-14T08:26:39;22.30;52.00
13472;DHT22;6808;49.444;11.034;2023-06-14T08:29:05;21.70;52.10
13472;DHT22;6808;49.444;11.034;2023-06-14T08:31:32;21.30;52.70
13472;DHT22;6808;49.444;11.034;2023-06-14T08:33:58;21.20;52.30
13472;DHT22;6808;49.444;11.034;2023-06-14T08:36:23;21.50;53.50
13472;DHT22;6808;49.444;11.034;2023-06-14T08:38:49;21.70;52.50
13472;DHT22;6808;49.444;11.034;2023-06-14T08:41:20;22.00;52.70
13472;DHT22;6808;49.444;11.034;2023-06-14T08:43:47;22.00;51.90
13472;DHT22;6808;49.444;11.034;2023-06-14T08:46:14;21.80;52.00
13472;DHT22;6808;49.444;11.034;2023-06-14T08:48:42;21.80;52.10
13472;DHT22;6808;49.444;11.034;2023-06-14T08:51:09;21.90;51.80
13472;DHT22;6808;49.444;11.034;2023-06-14T08:53:36;22.00;51.60
13472;DHT22;6808;49.444;11.034;2023-06-14T08:56:08;22.00;51.50
13472;DHT22;6808;49.444;11.034;2023-06-14T08:58:44;22.00;51.00
13472;DHT22;6808;49.444;11.034;2023-06-14T09:01:13;22.00;50.70
13472;DHT22;6808;49.444;11.034;2023-06-14T09:03:41;21.90;51.30
13472;DHT22;6808;49.444;11.034;2023-06-14T09:06:08;21.90;51.40
13472;DHT22;6808;49.444;11.034;2023-06-14T09:08:46;21.90;50.60
13472;DHT22;6808;49.444;11.034;2023-06-14T09:11:12;22.10;52.20
13472;DHT22;6808;49.444;11.034;2023-06-14T09:13:39;22.90;51.50
13472;DHT22;6808;49.444;11.034;2023-06-14T09:16:05;22.00;51.00
13472;DHT22;6808;49.444;11.034;2023-06-14T09:18:42;22.30;50.90
13472;DHT22;6808;49.444;11.034;2023-06-14T09:21:10;22.00;50.70
13472;DHT22;6808;49.444;11.034;2023-06-14T09:23:40;22.10;50.50
13472;DHT22;6808;49.444;11.034;2023-06-14T09:26:11;22.30;51.10
13472;DHT22;6808;49.444;11.034;2023-06-14T09:28:44;22.30;50.80
13472;DHT22;6808;49.444;11.034;2023-06-14T09:31:16;22.60;50.70
13472;DHT22;6808;49.444;11.034;2023-06-14T09:33:43;22.50;51.40
13472;DHT22;6808;49.444;11.034;2023-06-14T09:36:15;22.70;50.90
13472;DHT22;6808;49.444;11.034;2023-06-14T09:38:58;22.60;50.30
13472;DHT22;6808;49.444;11.034;2023-06-14T09:41:40;22.60;50.60
13472;DHT22;6808;49.444;11.034;2023-06-14T09:44:08;22.60;49.90
13472;DHT22;6808;49.444;11.034;2023-06-14T09:46:34;22.60;50.10
13472;DHT22;6808;49.444;11.034;2023-06-14T09:49:01;22.40;49.50
13472;DHT22;6808;49.444;11.034;2023-06-14T09:51:28;21.80;50.00
13472;DHT22;6808;49.444;11.034;2023-06-14T09:53:59;21.70;50.60
13472;DHT22;6808;49.444;11.034;2023-06-14T09:56:29;21.80;50.90
13472;DHT22;6808;49.444;11.034;2023-06-14T09:58:58;21.80;50.50
13472;DHT22;6808;49.444;11.034;2023-06-14T10:01:26;22.30;50.90
13472;DHT22;6808;49.444;11.034;2023-06-14T10:04:06;22.00;50.30
13472;DHT22;6808;49.444;11.034;2023-06-14T10:06:36;21.80;50.10
13472;DHT22;6808;49.444;11.034;2023-06-14T10:09:03;21.90;50.40
13472;DHT22;6808;49.444;11.034;2023-06-14T10:11:31;21.90;50.50
13472;DHT22;6808;49.444;11.034;2023-06-14T10:13:58;22.10;49.80
13472;DHT22;6808;49.444;11.034;2023-06-14T10:16:31;22.60;49.90
13472;DHT22;6808;49.444;11.034;2023-06-14T10:25:02;22.70;49.30
13472;DHT22;6808;49.444;11.034;2023-06-14T10:27:27;23.00;48.70
13472;DHT22;6808;49.444;11.034;2023-06-14T10:32:20;23.20;48.20
13472;DHT22;6808;49.444;11.034;2023-06-14T10:35:16;22.90;47.90
13472;DHT22;6808;49.444;11.034;2023-06-14T10:37:39;23.10;47.60
13472;DHT22;6808;49.444;11.034;2023-06-14T10:40:06;23.00;47.60
13472;DHT22;6808;49.444;11.034;2023-06-14T10:42:34;23.00;47.60
13472;DHT22;6808;49.444;11.034;2023-06-14T10:45:00;22.50;47.60
13472;DHT22;6808;49.444;11.034;2023-06-14T10:47:29;22.60;49.10
13472;DHT22;6808;49.444;11.034;2023-06-14T10:50:02;22.60;47.80
13472;DHT22;6808;49.444;11.034;2023-06-14T10:52:31;22.10;47.20
13472;DHT22;6808;49.444;11.034;2023-06-14T10:57:27;22.10;48.30
13472;DHT22;6808;49.444;11.034;2023-06-14T10:59:53;22.30;47.90
13472;DHT22;6808;49.444;11.034;2023-06-14T11:04:48;22.40;47.50
13472;DHT22;6808;49.444;11.034;2023-06-14T11:10:09;22.60;47.70
13472;DHT22;6808;49.444;11.034;2023-06-14T11:12:36;22.60;46.50
13472;DHT22;6808;49.444;11.034;2023-06-14T11:15:05;22.60;47.60
13472;DHT22;6808;49.444;11.034;2023-06-14T11:17:33;22.80;47.70
13472;DHT22;6808;49.444;11.034;2023-06-14T11:20:12;23.00;47.80
13472;DHT22;6808;49.444;11.034;2023-06-14T11:22:44;22.90;45.40
13472;DHT22;6808;49.444;11.034;2023-06-14T11:25:11;22.90;48.20
13472;DHT22;6808;49.444;11.034;2023-06-14T11:27:37;22.80;43.70
13472;DHT22;6808;49.444;11.034;2023-06-14T11:30:03;22.80;44.40
13472;DHT22;6808;49.444;11.034;2023-06-14T11:32:31;22.80;45.20
13472;DHT22;6808;49.444;11.034;2023-06-14T11:34:56;22.80;45.10
13472;DHT22;6808;49.444;11.034;2023-06-14T11:37:24;22.80;45.60
13472;DHT22;6808;49.444;11.034;2023-06-14T11:39:51;22.70;45.70
13472;DHT22;6808;49.444;11.034;2023-06-14T11:42:17;22.60;45.40
13472;DHT22;6808;49.444;11.034;2023-06-14T11:44:46;22.30;46.10
13472;DHT22;6808;49.444;11.034;2023-06-14T11:47:11;22.50;46.40
13472;DHT22;6808;49.444;11.034;2023-06-14T11:49:37;22.70;45.80
13472;DHT22;6808;49.444;11.034;2023-06-14T11:52:02;22.30;45.70
13472;DHT22;6808;49.444;11.034;2023-06-14T11:54:28;22.30;46.40
13472;DHT22;6808;49.444;11.034;2023-06-14T11:56:54;22.40;47.70
13472;DHT22;6808;49.444;11.034;2023-06-14T11:59:20;22.50;47.60
13472;DHT22;6808;49.444;11.034;2023-06-14T12:01:47;22.60;47.10
13472;DHT22;6808;49.444;11.034;2023-06-14T12:04:13;22.60;45.60
13472;DHT22;6808;49.444;11.034;2023-06-14T12:06:38;22.80;45.50
13472;DHT22;6808;49.444;11.034;2023-06-14T12:09:08;23.00;45.00
13472;DHT22;6808;49.444;11.034;2023-06-14T12:11:39;22.30;46.60
13472;DHT22;6808;49.444;11.034;2023-06-14T12:14:05;22.80;49.40
13472;DHT22;6808;49.444;11.034;2023-06-14T12:16:34;22.80;45.10
13472;DHT22;6808;49.444;11.034;2023-06-14T12:19:14;22.70;45.00
13472;DHT22;6808;49.444;11.034;2023-06-14T12:21:40;22.00;44.60
13472;DHT22;6808;49.444;11.034;2023-06-14T12:24:06;22.70;45.10
13472;DHT22;6808;49.444;11.034;2023-06-14T12:26:32;22.90;46.10
13472;DHT22;6808;49.444;11.034;2023-06-14T12:28:58;23.30;44.50
13472;DHT22;6808;49.444;11.034;2023-06-14T12:31:24;23.20;43.50
13472;DHT22;6808;49.444;11.034;2023-06-14T12:33:51;23.40;44.90
13472;DHT22;6808;49.444;11.034;2023-06-14T12:36:16;24.10;44.60
13472;DHT22;6808;49.444;11.034;2023-06-14T12:38:42;24.20;44.00
13472;DHT22;6808;49.444;11.034;2023-06-14T12:41:08;23.90;43.20
13472;DHT22;6808;49.444;11.034;2023-06-14T12:43:34;23.90;41.90
13472;DHT22;6808;49.444;11.034;2023-06-14T12:46:00;23.40;42.20
13472;DHT22;6808;49.444;11.034;2023-06-14T12:48:26;23.20;41.60
13472;DHT22;6808;49.444;11.034;2023-06-14T12:50:56;23.20;42.00
13472;DHT22;6808;49.444;11.034;2023-06-14T12:53:22;23.60;42.30
13472;DHT22;6808;49.444;11.034;2023-06-14T12:55:48;23.10;42.30
13472;DHT22;6808;49.444;11.034;2023-06-14T12:58:14;23.30;42.60
13472;DHT22;6808;49.444;11.034;2023-06-14T13:00:42;23.20;43.50
13472;DHT22;6808;49.444;11.034;2023-06-14T13:03:08;23.30;42.60
13472;DHT22;6808;49.444;11.034;2023-06-14T13:05:33;23.40;46.80
13472;DHT22;6808;49.444;11.034;2023-06-14T13:07:59;23.40;45.20
13472;DHT22;6808;49.444;11.034;2023-06-14T13:10:26;23.50;45.50
13472;DHT22;6808;49.444;11.034;2023-06-14T13:12:52;23.50;44.60
13472;DHT22;6808;49.444;11.034;2023-06-14T13:15:17;23.60;44.80
13472;DHT22;6808;49.444;11.034;2023-06-14T13:17:43;23.70;43.70
13472;DHT22;6808;49.444;11.034;2023-06-14T13:20:13;24.00;44.90
13472;DHT22;6808;49.444;11.034;2023-06-14T13:22:39;23.60;43.10
13472;DHT22;6808;49.444;11.034;2023-06-14T13:25:06;23.80;45.60
13472;DHT22;6808;49.444;11.034;2023-06-14T13:27:31;23.70;43.70
13472;DHT22;6808;49.444;11.034;2023-06-14T13:29:57;23.70;44.80
13472;DHT22;6808;49.444;11.034;2023-06-14T13:32:23;23.40;41.80
13472;DHT22;6808;49.444;11.034;2023-06-14T13:34:49;23.40;42.60
13472;DHT22;6808;49.444;11.034;2023-06-14T13:37:14;23.50;43.00
13472;DHT22;6808;49.444;11.034;2023-06-14T13:39:40;23.60;43.50
13472;DHT22;6808;49.444;11.034;2023-06-14T13:42:06;23.80;43.10
13472;DHT22;6808;49.444;11.034;2023-06-14T13:44:31;23.70;42.20
13472;DHT22;6808;49.444;11.034;2023-06-14T13:46:57;23.80;42.30
13472;DHT22;6808;49.444;11.034;2023-06-14T13:49:22;24.40;42.30
13472;DHT22;6808;49.444;11.034;2023-06-14T13:51:48;24.10;44.50
13472;DHT22;6808;49.444;11.034;2023-06-14T13:54:14;24.20;41.60
13472;DHT22;6808;49.444;11.034;2023-06-14T13:56:41;24.10;44.80
13472;DHT22;6808;49.444;11.034;2023-06-14T13:59:06;24.10;42.70
13472;DHT22;6808;49.444;11.034;2023-06-14T14:01:32;24.20;41.80
13472;DHT22;6808;49.444;11.034;2023-06-14T14:03:57;24.30;43.70
13472;DHT22;6808;49.444;11.034;2023-06-14T14:06:24;24.40;45.00
13472;DHT22;6808;49.444;11.034;2023-06-14T14:08:49;24.40;44.00
13472;DHT22;6808;49.444;11.034;2023-06-14T14:11:15;24.50;43.20
13472;DHT22;6808;49.444;11.034;2023-06-14T14:13:41;24.70;43.20
13472;DHT22;6808;49.444;11.034;2023-06-14T14:16:08;24.50;43.40
13472;DHT22;6808;49.444;11.034;2023-06-14T14:18:33;24.20;40.90
13472;DHT22;6808;49.444;11.034;2023-06-14T14:20:59;23.90;42.30
13472;DHT22;6808;49.444;11.034;2023-06-14T14:23:26;24.00;45.20
13472;DHT22;6808;49.444;11.034;2023-06-14T14:25:52;24.10;43.90
13472;DHT22;6808;49.444;11.034;2023-06-14T14:28:17;24.10;44.00
13472;DHT22;6808;49.444;11.034;2023-06-14T14:30:45;24.20;42.80
13472;DHT22;6808;49.444;11.034;2023-06-14T14:33:13;24.20;43.10
13472;DHT22;6808;49.444;11.034;2023-06-14T14:35:45;24.20;42.00
13472;DHT22;6808;49.444;11.034;2023-06-14T14:38:15;24.30;43.70
13472;DHT22;6808;49.444;11.034;2023-06-14T14:40:43;24.20;41.80
13472;DHT22;6808;49.444;11.034;2023-06-14T14:43:10;24.20;41.40
13472;DHT22;6808;49.444;11.034;2023-06-14T14:45:36;24.20;41.40
13472;DHT22;6808;49.444;11.034;2023-06-14T14:48:02;24.10;41.80
13472;DHT22;6808;49.444;11.034;2023-06-14T14:50:28;24.10;41.60
13472;DHT22;6808;49.444;11.034;2023-06-14T14:52:54;24.20;41.60
13472;DHT22;6808;49.444;11.034;2023-06-14T14:55:20;24.20;42.50
13472;DHT22;6808;49.444;11.034;2023-06-14T14:57:46;24.10;43.30
13472;DHT22;6808;49.444;11.034;2023-06-14T15:00:13;24.10;43.70
13472;DHT22;6808;49.444;11.034;2023-06-14T15:02:39;24.20;42.10
13472;DHT22;6808;49.444;11.034;2023-06-14T15:05:05;24.30;42.80
13472;DHT22;6808;49.444;11.034;2023-06-14T15:07:31;24.20;43.80
13472;DHT22;6808;49.444;11.034;2023-06-14T15:09:57;24.20;41.90
13472;DHT22;6808;49.444;11.034;2023-06-14T15:12:23;24.20;40.40
13472;DHT22;6808;49.444;11.034;2023-06-14T15:14:52;24.10;41.40
13472;DHT22;6808;49.444;11.034;2023-06-14T15:17:19;24.10;42.30
13472;DHT22;6808;49.444;11.034;2023-06-14T15:19:45;24.10;41.20
13472;DHT22;6808;49.444;11.034;2023-06-14T15:22:12;24.20;43.50
13472;DHT22;6808;49.444;11.034;2023-06-14T15:24:38;24.50;43.70
13472;DHT22;6808;49.444;11.034;2023-06-14T15:27:09;24.60;40.60
13472;DHT22;6808;49.444;11.034;2023-06-14T15:29:36;24.60;40.60
13472;DHT22;6808;49.444;11.034;2023-06-14T15:32:02;24.30;40.60
13472;DHT22;6808;49.444;11.034;2023-06-14T15:34:27;24.40;40.50
13472;DHT22;6808;49.444;11.034;2023-06-14T15:36:53;24.50;40.50
13472;DHT22;6808;49.444;11.034;2023-06-14T15:39:18;24.70;40.10
13472;DHT22;6808;49.444;11.034;2023-06-14T15:41:45;24.30;39.10
13472;DHT22;6808;49.444;11.034;2023-06-14T15:44:11;24.10;39.70
13472;DHT22;6808;49.444;11.034;2023-06-14T15:46:37;24.10;39.50